Time;durP1;ratioP1;P1;durP2;ratioP2;P2;SDS_P1;SDS_P2;PMS_P1;PMS_P2;Temp;Humidity;BMP_temperature;BMP_pressure;BME280_temperature;BME280_humidity;BME280_pressure;Samples;Min_cycle;Max_cycle;Signal;HPM_P1;HPM_P2
2022/08/08 00:00:42;;;;;;;5.80;1.90;;;16.40;94.90;;;;;;4248546;27;20050;-81
2022/08/08 00:03:01;;;;;;;5.70;2.03;;;16.40;94.90;;;;;;4247371;27;20050;-82
2022/08/08 00:05:22;;;;;;;5.15;1.80;;;16.40;95.00;;;;;;4247975;27;20035;-82
2022/08/08 00:07:56;;;;;;;4.50;2.00;;;16.40;95.20;;;;;;4248226;27;20061;-82
2022/08/08 00:10:20;;;;;;;7.22;2.00;;;16.30;95.50;;;;;;4247821;27;20036;-82
2022/08/08 00:12:30;;;;;;;6.05;2.15;;;16.30;95.50;;;;;;4247968;27;20130;-82
2022/08/08 00:15:18;;;;;;;3.47;1.90;;;16.30;95.50;;;;;;4246159;27;20527;-82
2022/08/08 00:17:28;;;;;;;4.10;1.60;;;16.30;96.10;;;;;;4233396;27;20051;-82
2022/08/08 00:19:39;;;;;;;7.88;2.13;;;16.30;95.70;;;;;;4242815;27;20112;-82
2022/08/08 00:21:57;;;;;;;5.93;2.20;;;16.30;95.70;;;;;;4230125;28;20047;-82
2022/08/08 00:24:08;;;;;;;4.40;2.97;;;16.20;95.90;;;;;;4231447;28;20051;-82
2022/08/08 00:26:16;;;;;;;6.75;2.08;;;16.20;96.00;;;;;;4231844;28;20661;-82
2022/08/08 00:28:41;;;;;;;4.30;2.10;;;16.20;96.10;;;;;;4231992;28;20122;-82
2022/08/08 00:30:50;;;;;;;6.05;2.22;;;16.10;96.10;;;;;;4231564;28;20071;-82
2022/08/08 00:32:56;;;;;;;5.78;2.05;;;16.10;96.40;;;;;;4230610;28;20084;-82
2022/08/08 00:35:14;;;;;;;4.35;1.85;;;16.10;96.40;;;;;;4230419;28;20104;-82
2022/08/08 00:37:32;;;;;;;7.03;2.35;;;16.10;96.60;;;;;;4229907;28;20035;-82
2022/08/08 00:39:59;;;;;;;4.70;1.70;;;16.10;96.80;;;;;;4231220;28;20078;-81
2022/08/08 00:42:27;;;;;;;7.18;2.17;;;16.00;96.90;;;;;;4231207;28;20039;-82
2022/08/08 00:45:08;;;;;;;7.30;2.60;;;16.00;96.70;;;;;;4231882;27;20063;-82
2022/08/08 00:47:12;;;;;;;4.75;2.00;;;16.00;97.10;;;;;;4250280;27;20051;-83
2022/08/08 00:49:46;;;;;;;7.57;1.90;;;16.00;96.60;;;;;;4255070;27;20042;-82
2022/08/08 00:52:09;;;;;;;3.72;1.77;;;16.00;96.90;;;;;;4223504;27;20062;-82
2022/08/08 00:54:41;;;;;;;4.75;1.90;;;16.00;97.00;;;;;;4250883;27;20066;-82
2022/08/08 00:57:12;;;;;;;5.63;2.00;;;16.00;97.00;;;;;;4251851;27;20047;-82
2022/08/08 00:59:35;;;;;;;3.35;1.98;;;16.00;97.20;;;;;;4251618;27;20522;-81
2022/08/08 01:01:49;;;;;;;9.20;2.30;;;15.90;97.30;;;;;;4250534;27;20046;-81
2022/08/08 01:04:20;;;;;;;5.28;2.10;;;15.90;97.00;;;;;;4246454;27;20406;-81
2022/08/08 01:06:51;;;;;;;4.82;2.10;;;15.90;97.30;;;;;;4246602;27;20130;-81
2022/08/08 01:09:33;;;;;;;7.47;2.30;;;15.90;97.50;;;;;;4247814;27;20047;-82
2022/08/08 01:12:03;;;;;;;5.18;2.25;;;15.90;97.60;;;;;;4235645;27;20134;-82
2022/08/08 01:14:12;;;;;;;5.38;2.03;;;15.80;97.60;;;;;;4246394;28;20051;-83
2022/08/08 01:16:44;;;;;;;3.65;1.70;;;15.80;97.40;;;;;;4245510;27;20051;-82
2022/08/08 01:19:35;;;;;;;5.05;2.22;;;15.80;97.80;;;;;;4247026;27;20159;-81
2022/08/08 01:21:45;;;;;;;5.78;2.30;;;15.80;97.80;;;;;;4247175;27;20051;-81
2022/08/08 01:23:54;;;;;;;5.90;2.60;;;15.80;97.60;;;;;;4232460;28;20507;-82
2022/08/08 01:26:19;;;;;;;3.17;2.15;;;15.80;97.70;;;;;;4246045;27;20048;-81
2022/08/08 01:28:51;;;;;;;5.32;2.63;;;15.80;97.80;;;;;;4249047;27;20055;-82
2022/08/08 01:31:10;;;;;;;4.50;2.47;;;15.70;98.00;;;;;;4249254;27;20373;-81
2022/08/08 01:33:38;;;;;;;4.10;2.17;;;15.70;97.90;;;;;;4249123;27;20039;-81
2022/08/08 01:36:00;;;;;;;3.65;1.67;;;15.70;98.10;;;;;;4232865;27;20043;-81
2022/08/08 01:38:27;;;;;;;10.50;3.13;;;15.60;98.10;;;;;;4233470;28;20052;-81
2022/08/08 01:40:47;;;;;;;5.13;2.05;;;15.70;98.40;;;;;;4233142;28;20039;-81
2022/08/08 01:42:53;;;;;;;4.90;2.00;;;15.60;98.60;;;;;;4233615;28;20038;-81
2022/08/08 01:45:11;;;;;;;5.93;2.22;;;15.50;98.40;;;;;;4239839;27;20047;-81
2022/08/08 01:47:42;;;;;;;6.28;2.30;;;15.50;98.50;;;;;;4248855;27;20043;-81
2022/08/08 01:50:05;;;;;;;4.65;1.83;;;15.50;98.80;;;;;;4247118;27;20047;-82
2022/08/08 01:52:18;;;;;;;6.57;2.67;;;15.50;98.90;;;;;;4250247;27;20117;-81
2022/08/08 01:54:56;;;;;;;3.30;2.22;;;15.40;98.80;;;;;;4231142;28;20050;-81
2022/08/08 01:57:31;;;;;;;2.97;2.10;;;15.50;99.10;;;;;;4250261;27;20047;-81
2022/08/08 02:00:17;;;;;;;2.83;2.00;;;15.40;99.20;;;;;;4219541;27;20470;-82
2022/08/08 02:03:05;;;;;;;5.18;2.08;;;15.40;99.10;;;;;;4206319;28;20063;-82
2022/08/08 02:05:08;;;;;;;7.50;2.00;;;15.40;99.10;;;;;;4164374;28;20049;-82
2022/08/08 02:07:20;;;;;;;4.50;1.95;;;15.40;99.00;;;;;;4209540;28;20076;-82
2022/08/08 02:09:41;;;;;;;9.18;2.30;;;15.40;99.10;;;;;;4232834;27;20546;-82
2022/08/08 02:11:44;;;;;;;8.07;2.83;;;15.30;99.10;;;;;;4231619;28;20051;-82
2022/08/08 02:14:09;;;;;;;5.90;2.35;;;15.30;99.10;;;;;;4231758;28;20126;-82
2022/08/08 02:16:23;;;;;;;5.10;2.00;;;15.30;99.20;;;;;;4230819;28;20039;-82
2022/08/08 02:18:50;;;;;;;7.45;3.05;;;15.30;99.30;;;;;;4237356;27;20047;-82
2022/08/08 02:23:30;;;;;;;4.20;1.90;;;15.40;99.50;;;;;;4249751;27;20043;-81
2022/08/08 02:25:56;;;;;;;6.65;2.20;;;15.30;99.50;;;;;;4249576;27;20047;-82
2022/08/08 02:28:04;;;;;;;8.63;2.60;;;15.40;99.90;;;;;;4246975;27;20104;-82
2022/08/08 02:30:13;;;;;;;4.40;2.90;;;15.40;99.40;;;;;;4231617;28;20054;-82
2022/08/08 02:32:38;;;;;;;8.77;2.95;;;15.50;99.50;;;;;;4230740;28;20125;-82
2022/08/08 02:34:57;;;;;;;7.82;2.90;;;15.50;99.80;;;;;;4232501;28;20039;-82
2022/08/08 02:37:24;;;;;;;4.05;2.08;;;15.50;99.70;;;;;;4232866;28;20494;-82
2022/08/08 02:39:58;;;;;;;7.47;2.30;;;15.50;99.80;;;;;;4232464;28;20104;-82
2022/08/08 02:42:08;;;;;;;2.72;2.05;;;15.50;99.90;;;;;;4231108;28;20097;-82
2022/08/08 02:44:24;;;;;;;4.57;2.28;;;15.60;99.60;;;;;;4231147;28;20055;-82
2022/08/08 02:46:31;;;;;;;4.60;2.30;;;15.60;99.60;;;;;;4231638;28;20039;-82
2022/08/08 02:48:56;;;;;;;5.85;2.05;;;15.60;99.60;;;;;;4232666;28;20056;-82
2022/08/08 02:51:22;;;;;;;5.65;2.10;;;15.60;99.90;;;;;;4232102;28;20043;-82
2022/08/08 02:53:25;;;;;;;3.28;2.10;;;15.70;99.70;;;;;;4232514;28;20046;-82
2022/08/08 02:55:44;;;;;;;5.40;2.95;;;15.70;99.80;;;;;;4246751;27;20050;-82
2022/08/08 02:58:03;;;;;;;5.53;2.25;;;15.60;99.70;;;;;;4248794;27;20055;-82
2022/08/08 03:00:22;;;;;;;6.30;2.67;;;15.60;99.90;;;;;;4249746;27;20043;-82
2022/08/08 03:02:48;;;;;;;4.85;2.08;;;15.60;99.80;;;;;;4249561;27;20041;-82
2022/08/08 03:04:57;;;;;;;7.80;2.20;;;15.60;99.90;;;;;;4249970;27;20049;-82
2022/08/08 03:07:15;;;;;;;4.35;2.22;;;15.60;99.90;;;;;;4248802;27;20062;-82
2022/08/08 03:09:50;;;;;;;8.20;2.63;;;15.60;99.90;;;;;;4248600;27;20051;-82
2022/08/08 03:12:10;;;;;;;3.35;2.17;;;15.60;99.90;;;;;;4248078;27;20047;-82
2022/08/08 03:14:33;;;;;;;4.70;1.90;;;15.60;99.90;;;;;;4231469;28;20139;-82
2022/08/08 03:17:05;;;;;;;5.50;2.35;;;15.70;99.90;;;;;;4249661;27;20042;-82
2022/08/08 03:19:36;;;;;;;6.18;2.20;;;15.70;99.90;;;;;;4228294;27;20047;-82
2022/08/08 03:21:37;;;;;;;7.82;2.67;;;15.70;99.90;;;;;;4248294;27;20078;-82
2022/08/08 03:23:39;;;;;;;2.55;1.95;;;15.70;99.90;;;;;;4248364;27;20058;-81
2022/08/08 03:25:41;;;;;;;3.30;2.05;;;15.70;99.90;;;;;;4214775;28;20491;-81
2022/08/08 03:27:58;;;;;;;4.65;2.42;;;15.80;99.90;;;;;;4231832;28;20043;-82
2022/08/08 03:30:05;;;;;;;7.60;2.47;;;15.80;99.90;;;;;;4231263;28;20083;-82
2022/08/08 03:34:27;;;;;;;3.97;2.22;;;15.80;99.90;;;;;;4237190;27;20059;-82
2022/08/08 03:36:27;;;;;;;5.55;2.05;;;15.80;99.90;;;;;;4247270;27;20050;-82
2022/08/08 03:38:28;;;;;;;4.88;2.40;;;15.80;99.90;;;;;;4249006;27;20050;-82
2022/08/08 03:40:29;;;;;;;5.15;2.03;;;15.80;99.90;;;;;;4247868;27;20487;-82
2022/08/08 03:42:30;;;;;;;4.75;2.45;;;15.80;99.90;;;;;;4249192;27;20176;-82
2022/08/08 03:44:35;;;;;;;7.38;2.28;;;15.80;99.90;;;;;;4246657;27;20050;-82
2022/08/08 03:46:49;;;;;;;5.35;2.28;;;15.70;99.90;;;;;;4247794;27;20046;-82
2022/08/08 03:48:55;;;;;;;6.18;2.63;;;15.70;99.90;;;;;;4245650;27;20047;-82
2022/08/08 03:50:55;;;;;;;6.20;2.20;;;15.70;99.90;;;;;;4230451;28;20122;-82
2022/08/08 03:53:02;;;;;;;4.88;2.58;;;15.70;99.90;;;;;;4230549;28;20051;-82
2022/08/08 03:55:12;;;;;;;4.97;2.10;;;15.70;99.90;;;;;;4230330;28;20058;-82
2022/08/08 03:57:15;;;;;;;4.97;2.72;;;15.70;99.90;;;;;;4233397;27;20137;-82
2022/08/08 03:59:16;;;;;;;7.50;2.50;;;15.70;99.90;;;;;;4231564;28;20094;-81
2022/08/08 04:01:17;;;;;;;5.35;2.42;;;15.70;99.90;;;;;;4231363;28;20043;-82
2022/08/08 04:03:18;;;;;;;8.13;2.42;;;15.70;99.90;;;;;;4231864;28;20093;-82
2022/08/08 04:05:23;;;;;;;4.85;2.28;;;15.60;99.90;;;;;;4244088;27;20180;-82
2022/08/08 04:07:23;;;;;;;5.05;2.38;;;15.60;99.90;;;;;;4247986;27;20050;-82
2022/08/08 04:09:24;;;;;;;5.15;2.28;;;15.70;99.90;;;;;;4247647;27;20039;-82
2022/08/08 04:11:25;;;;;;;6.43;2.55;;;15.60;99.90;;;;;;4230886;28;20054;-82
2022/08/08 04:13:25;;;;;;;6.70;2.20;;;15.70;99.90;;;;;;4248544;27;20122;-82
2022/08/08 04:15:27;;;;;;;7.43;2.10;;;15.70;99.90;;;;;;4230682;28;20062;-82
2022/08/08 04:17:28;;;;;;;6.25;2.58;;;15.70;99.90;;;;;;4247836;27;20035;-82
2022/08/08 04:19:29;;;;;;;8.23;2.45;;;15.70;99.90;;;;;;4247214;27;20039;-82
2022/08/08 04:21:29;;;;;;;6.40;2.13;;;15.70;99.90;;;;;;4236950;27;20395;-82
2022/08/08 04:23:30;;;;;;;8.00;2.30;;;15.70;99.90;;;;;;4231252;28;20040;-82
2022/08/08 04:25:31;;;;;;;7.20;2.60;;;15.60;99.90;;;;;;4231718;28;20411;-82
2022/08/08 04:27:33;;;;;;;5.20;2.53;;;15.70;99.90;;;;;;4213250;28;20070;-82
2022/08/08 04:29:33;;;;;;;5.72;1.95;;;15.70;99.90;;;;;;4231105;28;20430;-82
2022/08/08 04:31:34;;;;;;;7.90;3.00;;;15.70;99.90;;;;;;4231255;28;20122;-82
2022/08/08 04:33:35;;;;;;;6.47;2.17;;;15.70;99.90;;;;;;4229473;28;20047;-82
2022/08/08 04:35:36;;;;;;;4.50;2.28;;;15.70;99.90;;;;;;4245946;27;20085;-82
2022/08/08 04:37:36;;;;;;;5.00;2.80;;;15.70;99.90;;;;;;4247017;27;20062;-82
2022/08/08 04:39:38;;;;;;;3.90;2.60;;;15.60;99.90;;;;;;4246764;27;20411;-82
2022/08/08 04:41:39;;;;;;;6.72;2.38;;;15.60;99.90;;;;;;4246742;27;20376;-82
2022/08/08 04:43:40;;;;;;;6.22;3.00;;;15.60;99.90;;;;;;4246380;27;20054;-82
2022/08/08 04:45:41;;;;;;;5.75;2.95;;;15.60;99.90;;;;;;4263298;27;20130;-82
2022/08/08 04:47:42;;;;;;;9.90;3.58;;;15.60;99.90;;;;;;4246642;27;20043;-82
2022/08/08 04:49:42;;;;;;;7.57;2.55;;;15.60;99.90;;;;;;4264672;27;20042;-82
2022/08/08 04:51:43;;;;;;;4.47;2.70;;;15.50;99.90;;;;;;4265050;27;20041;-82
2022/08/08 04:53:44;;;;;;;3.92;2.15;;;15.50;99.90;;;;;;4264614;27;20101;-82
2022/08/08 04:55:44;;;;;;;9.15;3.20;;;15.50;99.90;;;;;;4264356;27;20122;-82
2022/08/08 04:57:45;;;;;;;9.10;2.95;;;15.50;99.90;;;;;;4246765;27;20538;-82
2022/08/08 04:59:46;;;;;;;10.20;2.97;;;15.50;99.90;;;;;;4259977;27;20085;-82
2022/08/08 05:01:46;;;;;;;5.70;3.05;;;15.50;99.90;;;;;;4229533;28;20559;-82
2022/08/08 05:03:48;;;;;;;6.70;2.75;;;15.50;99.90;;;;;;4229240;28;20044;-82
2022/08/08 05:05:49;;;;;;;5.53;2.78;;;15.60;99.90;;;;;;4229657;28;20511;-82
2022/08/08 05:07:50;;;;;;;7.65;2.80;;;15.60;99.90;;;;;;4249609;27;20054;-82
2022/08/08 05:09:51;;;;;;;6.22;2.70;;;15.60;99.90;;;;;;4246282;27;20445;-82
2022/08/08 05:11:55;;;;;;;9.38;3.22;;;15.60;99.90;;;;;;4246543;27;20050;-81
2022/08/08 05:13:56;;;;;;;8.80;3.10;;;15.70;99.90;;;;;;4264824;27;20045;-82
2022/08/08 05:15:57;;;;;;;8.45;3.05;;;15.70;99.90;;;;;;4251763;27;20079;-82
2022/08/08 05:17:57;;;;;;;6.85;3.13;;;15.70;99.90;;;;;;4228868;28;20124;-82
2022/08/08 05:19:58;;;;;;;6.28;2.90;;;15.70;99.90;;;;;;4247762;28;20066;-82
2022/08/08 05:21:59;;;;;;;5.88;2.80;;;15.80;99.90;;;;;;4229623;28;20484;-82
2022/08/08 05:24:02;;;;;;;5.20;2.72;;;15.80;99.90;;;;;;4212836;28;20076;-82
2022/08/08 05:26:04;;;;;;;6.75;3.42;;;15.80;99.90;;;;;;4247093;28;20068;-81
2022/08/08 05:28:06;;;;;;;7.93;2.67;;;15.80;99.90;;;;;;4229680;28;20047;-82
2022/08/08 05:30:09;;;;;;;8.35;3.17;;;15.90;99.90;;;;;;4229365;28;20047;-82
2022/08/08 05:32:10;;;;;;;10.85;3.42;;;15.90;99.90;;;;;;4247649;28;20397;-82
2022/08/08 05:34:41;;;;;;;6.15;2.72;;;15.90;99.90;;;;;;4228878;28;20052;-81
2022/08/08 05:36:46;;;;;;;6.32;3.10;;;15.90;99.90;;;;;;4218131;28;20091;-82
2022/08/08 05:38:48;;;;;;;9.13;2.72;;;16.00;99.90;;;;;;4229189;28;20066;-82
2022/08/08 05:40:52;;;;;;;5.00;2.30;;;16.00;99.90;;;;;;4247757;28;20050;-82
2022/08/08 05:42:58;;;;;;;5.95;2.33;;;15.90;99.90;;;;;;4229005;28;20462;-82
2022/08/08 05:45:01;;;;;;;7.57;2.40;;;16.00;99.90;;;;;;4212055;28;20048;-82
2022/08/08 05:47:04;;;;;;;8.57;2.58;;;16.00;99.90;;;;;;4229474;28;20044;-82
2022/08/08 05:49:07;;;;;;;6.47;3.00;;;16.00;99.90;;;;;;4247700;28;20152;-82
2022/08/08 05:51:09;;;;;;;6.72;3.03;;;16.10;99.90;;;;;;4229479;28;20039;-82
2022/08/08 05:53:09;;;;;;;4.30;2.33;;;16.10;99.90;;;;;;4229531;28;20052;-82
2022/08/08 05:55:10;;;;;;;7.20;2.45;;;16.10;99.90;;;;;;4247578;28;20047;-82
2022/08/08 05:57:18;;;;;;;4.45;2.03;;;16.10;99.90;;;;;;4212646;28;20044;-82
2022/08/08 05:59:21;;;;;;;6.38;2.10;;;16.10;99.90;;;;;;4229520;28;20488;-82
2022/08/08 06:01:23;;;;;;;2.97;2.38;;;16.10;99.90;;;;;;4262570;27;20057;-82
2022/08/08 06:03:25;;;;;;;4.10;2.22;;;16.10;99.90;;;;;;4246277;28;20043;-82
2022/08/08 06:05:30;;;;;;;4.93;2.08;;;16.10;99.90;;;;;;4246830;28;20118;-82
2022/08/08 06:07:33;;;;;;;5.65;2.40;;;16.20;99.90;;;;;;4266232;27;20046;-82
2022/08/08 06:09:36;;;;;;;6.32;2.38;;;16.20;99.90;;;;;;4232105;28;20050;-82
2022/08/08 06:11:37;;;;;;;8.50;2.20;;;16.30;99.90;;;;;;4268674;27;20057;-82
2022/08/08 06:13:37;;;;;;;6.45;2.08;;;16.30;99.90;;;;;;4268055;27;20526;-82
2022/08/08 06:15:41;;;;;;;6.20;2.38;;;16.30;99.90;;;;;;4268179;27;20050;-82
2022/08/08 06:17:41;;;;;;;7.20;2.63;;;16.40;99.90;;;;;;4249050;27;20047;-82
2022/08/08 06:19:43;;;;;;;8.60;2.42;;;16.50;99.90;;;;;;4249189;27;20078;-82
2022/08/08 06:21:49;;;;;;;7.05;2.45;;;16.50;99.90;;;;;;4255756;27;20054;-82
2022/08/08 06:23:49;;;;;;;7.70;2.55;;;16.60;99.90;;;;;;4231598;28;20512;-82
2022/08/08 06:26:12;;;;;;;5.68;2.30;;;16.70;99.90;;;;;;4250592;27;20047;-82
2022/08/08 06:28:18;;;;;;;7.45;2.47;;;16.80;99.90;;;;;;4231955;28;20055;-82
2022/08/08 06:30:18;;;;;;;5.25;2.53;;;16.80;99.90;;;;;;4232260;28;20439;-82
2022/08/08 06:32:27;;;;;;;6.68;2.40;;;16.90;99.90;;;;;;4250032;27;20114;-82
2022/08/08 06:34:35;;;;;;;8.53;2.57;;;16.90;99.90;;;;;;4215781;28;20052;-82
2022/08/08 06:36:42;;;;;;;4.28;1.98;;;17.00;99.90;;;;;;4250448;27;20049;-82
2022/08/08 06:38:48;;;;;;;7.82;2.42;;;17.10;99.90;;;;;;4250281;27;20039;-82
2022/08/08 06:40:57;;;;;;;7.15;2.47;;;17.30;99.90;;;;;;4250454;27;20035;-82
2022/08/08 06:43:09;;;;;;;3.92;2.17;;;17.40;99.90;;;;;;4249934;27;20053;-82
2022/08/08 06:45:10;;;;;;;5.75;2.35;;;17.50;99.90;;;;;;4231634;28;20058;-82
2022/08/08 06:47:12;;;;;;;5.30;2.80;;;17.60;99.90;;;;;;4250201;27;20031;-82
2022/08/08 06:49:16;;;;;;;9.63;2.58;;;17.60;99.90;;;;;;4247681;27;20059;-82
2022/08/08 06:51:18;;;;;;;5.68;2.22;;;17.70;99.90;;;;;;4248709;27;20538;-82
2022/08/08 06:53:20;;;;;;;3.13;1.92;;;17.70;99.90;;;;;;4249112;27;20122;-82
2022/08/08 06:55:24;;;;;;;6.93;2.25;;;17.70;99.90;;;;;;4267184;27;20110;-82
2022/08/08 06:57:25;;;;;;;4.88;2.08;;;17.80;99.90;;;;;;4248641;27;20050;-82
2022/08/08 06:59:26;;;;;;;4.80;2.40;;;17.80;99.90;;;;;;4267193;27;20277;-82
2022/08/08 07:01:34;;;;;;;6.10;2.50;;;17.90;99.90;;;;;;4267147;27;20125;-82
2022/08/08 07:04:00;;;;;;;7.32;2.47;;;17.90;99.90;;;;;;4267395;27;20501;-82
2022/08/08 07:06:02;;;;;;;8.85;3.00;;;18.00;99.90;;;;;;4254204;27;20491;-82
2022/08/08 07:08:19;;;;;;;5.18;2.35;;;18.00;99.90;;;;;;4246948;27;20190;-82
2022/08/08 07:10:23;;;;;;;6.63;2.10;;;18.10;99.90;;;;;;4266973;27;20046;-82
2022/08/08 07:12:44;;;;;;;4.57;1.65;;;18.20;99.90;;;;;;4267040;27;20475;-82
2022/08/08 07:15:06;;;;;;;5.75;1.83;;;18.20;99.90;;;;;;4248119;27;20122;-83
2022/08/08 07:17:15;;;;;;;6.88;2.88;;;18.20;99.90;;;;;;4266906;27;20078;-82
2022/08/08 07:19:47;;;;;;;9.50;2.10;;;18.20;99.90;;;;;;4265280;27;20050;-82
2022/08/08 07:22:01;;;;;;;5.60;2.25;;;18.30;99.90;;;;;;4266570;27;20142;-82
2022/08/08 07:24:24;;;;;;;4.05;1.90;;;18.40;99.90;;;;;;4258342;27;20106;-82
2022/08/08 07:26:26;;;;;;;5.53;2.50;;;18.40;99.90;;;;;;4249735;27;20039;-83
2022/08/08 07:28:27;;;;;;;5.03;2.05;;;18.50;99.90;;;;;;4249688;27;20100;-83
2022/08/08 07:30:29;;;;;;;4.35;2.20;;;18.60;99.90;;;;;;4249524;27;20564;-82
2022/08/08 07:32:31;;;;;;;8.73;2.20;;;18.90;99.90;;;;;;4257476;27;20045;-82
2022/08/08 07:34:33;;;;;;;6.43;2.10;;;19.10;99.90;;;;;;4247282;27;20047;-82
2022/08/08 07:36:34;;;;;;;3.00;1.90;;;19.40;99.90;;;;;;4247900;27;20058;-82
2022/08/08 07:38:37;;;;;;;3.53;1.63;;;19.50;99.60;;;;;;4231508;27;20126;-82
2022/08/08 07:40:37;;;;;;;6.03;1.85;;;19.80;99.40;;;;;;4230916;28;20134;-82
2022/08/08 07:42:40;;;;;;;4.00;1.77;;;19.90;99.00;;;;;;4230873;28;20040;-83
2022/08/08 07:44:41;;;;;;;4.45;1.40;;;20.10;98.80;;;;;;4248587;27;20055;-82
2022/08/08 07:46:43;;;;;;;2.72;1.50;;;20.30;98.60;;;;;;4249058;27;20043;-82
2022/08/08 07:48:46;;;;;;;7.55;1.17;;;20.50;98.40;;;;;;4230545;28;20040;-82
2022/08/08 07:50:48;;;;;;;2.75;1.00;;;20.60;98.00;;;;;;4213662;28;20044;-82
2022/08/08 07:53:06;;;;;;;2.83;1.15;;;20.80;97.70;;;;;;4248470;27;20432;-82
2022/08/08 07:55:23;;;;;;;2.25;0.80;;;20.90;97.40;;;;;;4250300;27;20091;-82
2022/08/08 07:57:32;;;;;;;2.20;0.77;;;21.20;97.10;;;;;;4231367;28;20482;-82
2022/08/08 07:59:36;;;;;;;4.30;1.40;;;21.40;96.60;;;;;;4248513;27;20043;-82
2022/08/08 08:01:58;;;;;;;2.20;1.00;;;21.60;95.90;;;;;;4230148;28;20118;-82
2022/08/08 08:04:06;;;;;;;7.50;1.67;;;21.80;95.40;;;;;;4248869;27;20071;-83
2022/08/08 08:06:10;;;;;;;2.95;0.93;;;22.00;94.90;;;;;;4230555;28;20123;-82
2022/08/08 08:08:25;;;;;;;6.20;0.52;;;22.20;94.50;;;;;;4248930;27;20051;-83
2022/08/08 08:10:28;;;;;;;1.63;0.57;;;22.40;93.30;;;;;;4248641;27;20043;-82
2022/08/08 08:12:29;;;;;;;4.93;0.88;;;22.30;93.10;;;;;;4213288;28;20052;-83
2022/08/08 08:14:50;;;;;;;3.05;0.50;;;22.30;93.00;;;;;;4248376;27;20035;-83
2022/08/08 08:16:51;;;;;;;2.38;0.95;;;22.30;92.60;;;;;;4213266;28;20131;-82
2022/08/08 08:18:59;;;;;;;1.00;0.70;;;22.30;92.90;;;;;;4248268;27;20043;-83
2022/08/08 08:21:02;;;;;;;1.30;0.80;;;22.20;92.80;;;;;;4263497;27;20453;-83
2022/08/08 08:23:03;;;;;;;2.53;0.73;;;22.10;92.80;;;;;;4247143;27;20039;-83
2022/08/08 08:25:04;;;;;;;2.55;0.75;;;22.00;92.80;;;;;;4265033;27;20118;-83
2022/08/08 08:27:04;;;;;;;4.75;0.90;;;21.90;92.80;;;;;;4247010;27;20429;-83
2022/08/08 08:29:06;;;;;;;0.60;0.60;;;21.80;92.70;;;;;;4265105;27;20039;-83
2022/08/08 08:31:07;;;;;;;2.90;0.80;;;21.70;92.70;;;;;;4247282;27;20050;-82
2022/08/08 08:33:08;;;;;;;1.90;0.60;;;21.50;92.80;;;;;;4265478;27;20038;-83
2022/08/08 08:35:09;;;;;;;4.82;1.27;;;21.40;92.80;;;;;;4246940;27;20043;-83
2022/08/08 08:37:10;;;;;;;2.17;0.75;;;21.30;93.00;;;;;;4265316;27;20042;-83
2022/08/08 08:39:11;;;;;;;2.15;0.90;;;21.30;93.10;;;;;;4246178;27;20043;-83
2022/08/08 08:41:13;;;;;;;3.20;0.98;;;21.20;93.20;;;;;;4265389;27;20046;-83
2022/08/08 08:43:19;;;;;;;1.42;0.50;;;21.10;93.40;;;;;;4246939;27;20039;-82
2022/08/08 08:45:20;;;;;;;2.78;0.77;;;21.10;93.40;;;;;;4264916;27;20525;-82
2022/08/08 08:47:22;;;;;;;1.23;0.68;;;21.00;93.30;;;;;;4245655;27;20505;-82
2022/08/08 08:49:22;;;;;;;2.97;0.80;;;21.00;93.40;;;;;;4265110;27;20038;-82
2022/08/08 08:51:26;;;;;;;1.65;1.05;;;21.10;93.50;;;;;;4265340;27;20068;-83
2022/08/08 08:53:35;;;;;;;2.58;1.20;;;21.10;93.50;;;;;;4265340;27;20095;-82
2022/08/08 08:55:38;;;;;;;2.38;0.80;;;21.10;93.30;;;;;;4217804;28;20565;-83
2022/08/08 08:57:42;;;;;;;2.75;0.80;;;21.10;93.30;;;;;;4229441;28;20047;-82
2022/08/08 08:59:45;;;;;;;1.35;0.50;;;21.10;93.20;;;;;;4229049;28;20127;-82
2022/08/08 09:01:49;;;;;;;2.60;0.80;;;21.20;93.20;;;;;;4248132;27;20047;-82
2022/08/08 09:03:51;;;;;;;2.35;0.70;;;21.20;93.10;;;;;;4213030;28;20044;-82
2022/08/08 09:05:54;;;;;;;3.60;0.95;;;21.30;93.00;;;;;;4247007;27;20499;-82
2022/08/08 09:08:01;;;;;;;2.25;1.20;;;21.40;92.80;;;;;;4229618;28;20435;-82
2022/08/08 09:10:03;;;;;;;2.03;0.90;;;21.50;92.60;;;;;;4247560;27;20039;-82
2022/08/08 09:12:05;;;;;;;1.05;0.50;;;21.60;92.50;;;;;;4248140;27;20047;-83
2022/08/08 09:14:08;;;;;;;2.97;0.70;;;21.60;92.10;;;;;;4229111;28;20424;-83
2022/08/08 09:16:09;;;;;;;5.97;0.55;;;21.70;91.90;;;;;;4229414;28;20115;-83
2022/08/08 09:18:10;;;;;;;3.35;0.80;;;21.80;91.90;;;;;;4247784;28;20487;-83
2022/08/08 09:20:11;;;;;;;3.38;0.73;;;21.90;91.90;;;;;;4212649;28;20122;-82
2022/08/08 09:22:14;;;;;;;3.30;0.70;;;22.00;91.80;;;;;;4247547;28;20491;-83
2022/08/08 09:24:15;;;;;;;1.55;1.10;;;22.00;91.60;;;;;;4229457;28;20069;-83
2022/08/08 09:26:22;;;;;;;4.28;0.70;;;22.20;91.40;;;;;;4247746;28;20530;-83
2022/08/08 09:28:27;;;;;;;3.03;1.55;;;22.20;91.10;;;;;;4247815;28;20043;-83
2022/08/08 09:30:31;;;;;;;2.05;0.50;;;22.30;90.90;;;;;;4229411;28;20047;-83
2022/08/08 09:32:38;;;;;;;4.55;0.45;;;22.30;90.70;;;;;;4247267;28;20050;-82
2022/08/08 09:34:45;;;;;;;1.73;0.63;;;22.40;90.70;;;;;;4247799;28;20075;-82
2022/08/08 09:36:47;;;;;;;1.70;0.55;;;22.50;90.40;;;;;;4229757;28;20163;-82
2022/08/08 09:38:59;;;;;;;4.15;0.65;;;22.60;90.60;;;;;;4229456;28;20493;-83
2022/08/08 09:41:05;;;;;;;0.52;0.40;;;22.80;90.40;;;;;;4244942;28;20520;-82
2022/08/08 09:43:29;;;;;;;1.95;0.63;;;22.90;89.80;;;;;;4267299;27;20046;-82
2022/08/08 09:45:39;;;;;;;1.80;0.60;;;23.00;90.00;;;;;;4249664;27;20098;-83
2022/08/08 09:47:42;;;;;;;1.60;0.50;;;23.10;89.60;;;;;;4249152;27;20039;-82
2022/08/08 09:49:45;;;;;;;4.05;1.10;;;23.30;89.10;;;;;;4232759;28;20090;-83
2022/08/08 09:51:54;;;;;;;4.00;0.50;;;23.40;88.70;;;;;;4268185;27;20554;-83
2022/08/08 09:54:01;;;;;;;2.83;0.55;;;23.40;88.20;;;;;;4249618;27;20043;-83
2022/08/08 09:56:06;;;;;;;5.05;0.52;;;23.50;88.60;;;;;;4232736;28;20117;-83
2022/08/08 09:58:16;;;;;;;1.55;0.43;;;23.60;87.90;;;;;;4267781;27;20042;-83
2022/08/08 10:00:18;;;;;;;3.90;0.57;;;23.70;86.90;;;;;;4249265;27;20427;-84
2022/08/08 10:02:23;;;;;;;2.75;0.93;;;23.70;86.70;;;;;;4232431;28;20086;-83
2022/08/08 10:04:26;;;;;;;3.72;0.50;;;23.80;86.40;;;;;;4267561;27;20074;-82
2022/08/08 10:06:26;;;;;;;2.22;0.60;;;23.90;86.20;;;;;;4267869;27;20455;-82
2022/08/08 10:08:31;;;;;;;1.77;0.80;;;23.90;86.20;;;;;;4267727;27;20066;-82
2022/08/08 10:10:42;;;;;;;2.15;0.60;;;24.00;85.50;;;;;;4254958;27;20083;-83
2022/08/08 10:12:43;;;;;;;1.30;0.40;;;24.20;85.50;;;;;;4250424;27;20084;-83
2022/08/08 10:14:44;;;;;;;2.05;0.60;;;24.40;85.10;;;;;;4232406;28;20055;-83
2022/08/08 10:16:45;;;;;;;4.13;0.50;;;24.40;84.10;;;;;;4232782;28;20487;-83
2022/08/08 10:18:45;;;;;;;2.33;0.47;;;24.50;83.60;;;;;;4232372;28;20047;-83
2022/08/08 10:20:49;;;;;;;1.58;0.55;;;24.60;83.20;;;;;;4250783;27;20054;-83
2022/08/08 10:22:59;;;;;;;2.80;0.77;;;24.70;82.80;;;;;;4249935;27;20039;-83
2022/08/08 10:25:05;;;;;;;2.15;0.50;;;24.80;82.20;;;;;;4216303;28;20072;-83
2022/08/08 10:27:06;;;;;;;3.63;0.80;;;24.80;81.70;;;;;;4250969;27;20048;-83
2022/08/08 10:29:10;;;;;;;1.98;0.52;;;24.80;81.60;;;;;;4250403;27;20140;-83
2022/08/08 10:33:33;;;;;;;3.20;0.63;;;24.60;80.70;;;;;;4250496;27;20051;-83
2022/08/08 10:35:37;;;;;;;2.13;0.45;;;24.50;80.40;;;;;;4232003;28;20051;-83
2022/08/08 10:38:09;;;;;;;2.65;0.57;;;24.50;81.30;;;;;;4236738;27;20507;-83
2022/08/08 10:40:13;;;;;;;1.20;0.60;;;24.40;81.00;;;;;;4248481;27;20574;-83
2022/08/08 10:42:18;;;;;;;0.73;0.47;;;24.40;81.30;;;;;;4267600;27;20474;-83
2022/08/08 10:44:41;;;;;;;1.05;0.50;;;24.40;80.80;;;;;;4266327;27;20114;-83
2022/08/08 10:46:42;;;;;;;2.40;0.60;;;24.40;80.40;;;;;;4236827;27;20145;-83
2022/08/08 10:48:47;;;;;;;1.48;0.50;;;24.40;80.90;;;;;;4231734;28;20055;-83
2022/08/08 10:50:50;;;;;;;2.28;0.57;;;24.40;80.80;;;;;;4231897;28;20040;-83
2022/08/08 10:53:18;;;;;;;2.75;0.40;;;24.40;79.80;;;;;;4249467;27;20031;-83
2022/08/08 10:55:19;;;;;;;2.33;0.50;;;24.40;78.90;;;;;;4249154;27;20055;-83
2022/08/08 10:57:23;;;;;;;4.22;0.60;;;24.40;79.20;;;;;;4249711;27;20066;-83
2022/08/08 10:59:25;;;;;;;1.65;0.47;;;24.50;79.20;;;;;;4250396;27;20043;-83
2022/08/08 11:01:30;;;;;;;3.33;1.83;;;24.50;78.70;;;;;;4250201;27;20055;-83
2022/08/08 11:03:42;;;;;;;2.05;0.47;;;24.60;77.90;;;;;;4249929;27;20114;-83
2022/08/08 11:05:52;;;;;;;2.38;0.60;;;24.70;77.60;;;;;;4237054;27;20043;-83
2022/08/08 11:07:56;;;;;;;4.97;0.65;;;24.80;77.90;;;;;;4266676;27;20105;-83
2022/08/08 11:10:03;;;;;;;0.98;0.60;;;24.80;78.30;;;;;;4231344;28;20093;-83
2022/08/08 11:12:04;;;;;;;2.50;0.60;;;24.80;77.60;;;;;;4266250;27;20107;-83
2022/08/08 11:14:06;;;;;;;2.92;0.85;;;24.80;77.70;;;;;;4247821;27;20054;-83
2022/08/08 11:16:11;;;;;;;2.75;0.70;;;24.80;77.60;;;;;;4248353;27;20050;-83
2022/08/08 11:18:13;;;;;;;0.80;0.40;;;24.80;77.90;;;;;;4247888;27;20050;-83